PILOTS ONLINE: 273    ATC ONLINE: 38

Location

City Santa Monica
Country  United States
Latitude 34° 0' 56" N
Longitude 118° 27' 3" W
Elevation 177 ft
Type Small Airport

Weather

METAR
2014/07/14 09:51
KSMO 140951Z AUTO 15003KT 10SM CLR 22/17 A2992 RMK AO2 SLP129 T02170167
TAF
No TAF available

Runways

03/21 4973 ft / 150 ft

Outbound flights

Inbound flights


Spotted incorrect airport information? Please login with your VATSIM ID.